createdAt,value
2023-05-15T00:00:37.720Z,97820.06
2023-05-15T00:03:08.348Z,97811.66
2023-05-15T00:05:41.322Z,97817.28
2023-05-15T00:08:11.844Z,97811.47
2023-05-15T00:10:50.492Z,97810.03
2023-05-15T00:13:30.616Z,97800.72
2023-05-15T00:16:01.065Z,97805.91
2023-05-15T00:18:31.799Z,97805.69
2023-05-15T00:21:05.096Z,97802.19
2023-05-15T00:23:35.700Z,97801.56
2023-05-15T00:26:06.321Z,97805.28
2023-05-15T00:28:36.756Z,97795.34
2023-05-15T00:31:08.951Z,97799.50
2023-05-15T00:33:39.458Z,97802.69
2023-05-15T00:36:13.221Z,97803.19
2023-05-15T00:38:43.913Z,97802.38
2023-05-15T00:41:15.512Z,97799.28
2023-05-15T00:43:46.863Z,97800.72
2023-05-15T00:46:17.319Z,97798.22
2023-05-15T00:48:48.136Z,97799.22
2023-05-15T00:51:21.228Z,97801.63
2023-05-15T00:53:52.869Z,97802.38
2023-05-15T00:56:24.486Z,97803.06
2023-05-15T00:58:57.290Z,97796.13
2023-05-15T01:01:29.244Z,97793.66
2023-05-15T01:03:59.894Z,97799.78
2023-05-15T01:06:34.131Z,97795.53
2023-05-15T01:09:06.794Z,97794.91
2023-05-15T01:11:41.457Z,97794.06
2023-05-15T01:14:12.303Z,97800.28
2023-05-15T01:16:42.725Z,97799.53
2023-05-15T01:19:13.470Z,97800.47
2023-05-15T01:22:15.520Z,97810.94
2023-05-15T01:25:15.246Z,97816.09
2023-05-15T01:27:52.050Z,97808.34
2023-05-15T01:30:26.308Z,97805.53
2023-05-15T01:33:06.768Z,97809.56
2023-05-15T01:35:43.748Z,97804.41
2023-05-15T01:38:22.498Z,97802.69
2023-05-15T01:41:02.941Z,97800.09
2023-05-15T01:43:38.572Z,97797.38
2023-05-15T01:46:10.535Z,97805.16
2023-05-15T01:48:42.710Z,97803.50
2023-05-15T01:51:15.436Z,97802.69
2023-05-15T01:53:47.015Z,97806.09
2023-05-15T01:56:20.119Z,97804.41
2023-05-15T01:58:54.645Z,97806.09
2023-05-15T02:01:27.433Z,97802.75
2023-05-15T02:03:58.572Z,97799.53
2023-05-15T02:06:29.256Z,97798.91
2023-05-15T02:09:01.767Z,97806.22
2023-05-15T02:11:32.418Z,97801.00
2023-05-15T02:14:06.174Z,97801.50
2023-05-15T02:16:36.693Z,97807.72
2023-05-15T02:19:07.289Z,97806.97
2023-05-15T02:21:37.737Z,97803.66
2023-05-15T02:24:08.956Z,97807.16
2023-05-15T02:26:50.009Z,97804.31
2023-05-15T02:29:34.944Z,97812.34
2023-05-15T02:32:13.662Z,97811.31
2023-05-15T02:34:57.888Z,97818.34
2023-05-15T02:37:34.577Z,97811.63
2023-05-15T02:40:08.589Z,97811.81
2023-05-15T02:42:40.374Z,97804.44
2023-05-15T02:45:15.735Z,97815.69
2023-05-15T02:47:46.600Z,97804.00
2023-05-15T02:50:17.351Z,97805.03
2023-05-15T02:52:48.009Z,97814.44
2023-05-15T02:55:18.388Z,97805.84
2023-05-15T02:57:48.795Z,97812.69
2023-05-15T03:00:23.068Z,97803.19
2023-05-15T03:02:53.594Z,97805.47
2023-05-15T03:05:24.668Z,97805.56
2023-05-15T03:07:55.173Z,97804.66
2023-05-15T03:10:25.553Z,97804.44
2023-05-15T03:12:58.455Z,97804.34
2023-05-15T03:15:31.955Z,97800.31
2023-05-15T03:18:02.903Z,97803.59
2023-05-15T03:20:33.330Z,97799.25
2023-05-15T03:23:03.718Z,97795.59
2023-05-15T03:25:34.191Z,97799.91
2023-05-15T03:28:04.591Z,97794.31
2023-05-15T03:30:37.593Z,97788.72
2023-05-15T03:33:08.352Z,97792.44
2023-05-15T03:35:38.737Z,97798.44
2023-05-15T03:38:09.110Z,97797.22
2023-05-15T03:40:41.864Z,97801.34
2023-05-15T03:43:12.401Z,97799.25
2023-05-15T03:45:45.452Z,97801.25
2023-05-15T03:48:15.941Z,97797.38
2023-05-15T03:50:48.285Z,97803.38
2023-05-15T03:53:18.762Z,97795.44
2023-05-15T03:55:49.225Z,97803.19
2023-05-15T03:58:19.621Z,97801.44
2023-05-15T04:00:52.683Z,97801.31
2023-05-15T04:03:23.033Z,97798.19
2023-05-15T04:05:53.459Z,97802.56
2023-05-15T04:08:23.788Z,97805.03
2023-05-15T04:10:54.708Z,97802.34
2023-05-15T04:13:25.434Z,97804.00
2023-05-15T04:16:00.042Z,97801.44
2023-05-15T04:18:30.543Z,97807.53
2023-05-15T04:21:01.044Z,97801.44
2023-05-15T04:23:31.436Z,97805.66
2023-05-15T04:26:01.871Z,97806.50
2023-05-15T04:28:32.648Z,97803.81
2023-05-15T04:31:05.622Z,97800.13
2023-05-15T04:33:36.173Z,97806.81
2023-05-15T04:36:07.103Z,97796.41
2023-05-15T04:38:37.498Z,97805.69
2023-05-15T04:41:07.916Z,97807.16
2023-05-15T04:43:39.348Z,97798.28
2023-05-15T04:46:13.521Z,97803.44
2023-05-15T04:48:44.117Z,97804.94
2023-05-15T04:51:14.751Z,97800.81
2023-05-15T04:53:45.164Z,97801.81
2023-05-15T04:56:15.622Z,97802.88
2023-05-15T04:58:46.183Z,97807.84
2023-05-15T05:01:19.241Z,97810.34
2023-05-15T05:03:49.774Z,97809.50
2023-05-15T05:06:20.183Z,97812.09
2023-05-15T05:08:50.523Z,97817.91
2023-05-15T05:11:21.749Z,97811.78
2023-05-15T05:13:52.658Z,97815.13
2023-05-15T05:16:25.846Z,97821.63
2023-05-15T05:18:56.420Z,97818.22
2023-05-15T05:21:26.986Z,97815.44
2023-05-15T05:23:57.398Z,97825.31
2023-05-15T05:26:29.483Z,97831.97
2023-05-15T05:28:59.886Z,97827.19
2023-05-15T05:31:32.913Z,97825.34
2023-05-15T05:34:03.401Z,97823.56
2023-05-15T05:36:33.728Z,97824.53
2023-05-15T05:39:04.705Z,97824.41
2023-05-15T05:41:35.130Z,97828.25
2023-05-15T05:44:05.577Z,97829.06
2023-05-15T05:46:40.953Z,97833.22
2023-05-15T05:49:11.387Z,97831.78
2023-05-15T05:51:42.100Z,97823.06
2023-05-15T05:54:12.507Z,97821.44
2023-05-15T05:56:43.011Z,97831.38
2023-05-15T05:59:13.847Z,97826.53
2023-05-15T06:01:46.907Z,97819.56
2023-05-15T06:04:18.336Z,97822.47
2023-05-15T06:06:50.262Z,97833.22
2023-05-15T06:09:20.893Z,97833.03
2023-05-15T06:11:51.313Z,97831.38
2023-05-15T06:14:21.819Z,97835.63
2023-05-15T06:16:55.122Z,97834.50
2023-05-15T06:19:25.515Z,97828.38
2023-05-15T06:21:56.510Z,97827.03
2023-05-15T06:24:27.037Z,97831.47
2023-05-15T06:26:57.623Z,97826.22
2023-05-15T06:29:28.023Z,97820.16
2023-05-15T06:32:01.247Z,97819.97
2023-05-15T06:34:31.673Z,97823.09
2023-05-15T06:37:02.208Z,97824.09
2023-05-15T06:39:32.658Z,97825.75
2023-05-15T06:42:03.040Z,97828.94
2023-05-15T06:44:34.246Z,97832.28
2023-05-15T06:47:09.099Z,97841.63
2023-05-15T06:49:39.915Z,97833.41
2023-05-15T06:52:11.059Z,97834.53
2023-05-15T06:54:42.983Z,97833.19
2023-05-15T06:57:13.364Z,97829.44
2023-05-15T06:59:43.763Z,97835.03
2023-05-15T07:02:16.798Z,97835.84
2023-05-15T07:04:47.181Z,97828.56
2023-05-15T07:07:18.593Z,97833.56
2023-05-15T07:09:50.518Z,97831.59
2023-05-15T07:12:21.030Z,97833.38
2023-05-15T07:14:51.609Z,97829.41
2023-05-15T07:17:24.972Z,97836.25
2023-05-15T07:19:55.424Z,97829.16
2023-05-15T07:22:26.068Z,97826.44
2023-05-15T07:24:56.445Z,97829.22
2023-05-15T07:27:26.864Z,97831.41
2023-05-15T07:29:57.477Z,97829.06
2023-05-15T07:32:30.710Z,97835.41
2023-05-15T07:35:01.077Z,97844.53
2023-05-15T07:37:31.558Z,97831.56
2023-05-15T07:40:01.974Z,97834.38
2023-05-15T07:42:32.622Z,97839.09
2023-05-15T07:45:03.480Z,97837.22
2023-05-15T07:47:37.477Z,97830.38
2023-05-15T07:50:09.454Z,97834.03
2023-05-15T07:52:39.961Z,97834.16
2023-05-15T07:55:11.863Z,97836.00
2023-05-15T07:57:42.732Z,97828.50
2023-05-15T08:00:14.974Z,97836.28
2023-05-15T08:02:49.132Z,97824.94
2023-05-15T08:05:19.860Z,97826.75
2023-05-15T08:07:50.277Z,97828.56
2023-05-15T08:10:21.058Z,97824.78
2023-05-15T08:12:51.783Z,97828.34
2023-05-15T08:15:22.265Z,97828.38
2023-05-15T08:17:55.672Z,97825.28
2023-05-15T08:20:26.237Z,97821.19
2023-05-15T08:22:56.909Z,97826.25
2023-05-15T08:25:27.382Z,97815.41
2023-05-15T08:27:57.987Z,97818.69
2023-05-15T08:30:28.842Z,97817.31
2023-05-15T08:33:01.875Z,97818.03
2023-05-15T08:35:32.302Z,97818.28
2023-05-15T08:38:04.227Z,97820.16
2023-05-15T08:40:39.486Z,97824.31
2023-05-15T08:43:19.474Z,97810.69
2023-05-15T08:45:50.344Z,97813.06
2023-05-15T08:48:25.522Z,97813.78
2023-05-15T08:50:57.910Z,97813.78
2023-05-15T08:53:28.529Z,97803.03
2023-05-15T08:55:59.468Z,97796.63
2023-05-15T08:58:30.289Z,97791.28
2023-05-15T09:01:02.565Z,97792.22
2023-05-15T09:03:35.827Z,97791.47
2023-05-15T09:06:08.792Z,97794.88
2023-05-15T09:08:40.104Z,97786.84
2023-05-15T09:11:11.195Z,97791.53
2023-05-15T09:13:41.696Z,97790.69
2023-05-15T09:16:12.191Z,97783.53
2023-05-15T09:18:45.438Z,97781.59
2023-05-15T09:21:30.034Z,97775.22
2023-05-15T09:24:20.761Z,97777.81
2023-05-15T09:27:04.821Z,97778.03
2023-05-15T09:29:37.431Z,97776.53
2023-05-15T09:32:11.390Z,97779.41
2023-05-15T09:34:46.722Z,97783.81
2023-05-15T09:37:32.794Z,97780.97
2023-05-15T09:40:14.600Z,97775.53
2023-05-15T09:42:44.933Z,97775.91
2023-05-15T09:45:21.235Z,97778.06
2023-05-15T09:47:51.702Z,97770.75
2023-05-15T09:50:28.394Z,97773.34
2023-05-15T09:53:02.680Z,97766.75
2023-05-15T09:55:36.421Z,97769.44
2023-05-15T09:58:11.907Z,97766.81
2023-05-15T10:00:47.728Z,97760.34
2023-05-15T10:03:22.122Z,97759.56
2023-05-15T10:06:05.038Z,97763.28
2023-05-15T10:08:37.290Z,97762.03
2023-05-15T10:11:09.235Z,97762.16
2023-05-15T10:13:40.870Z,97749.41
2023-05-15T10:16:11.569Z,97751.31
2023-05-15T10:18:44.710Z,97751.91
2023-05-15T10:21:19.698Z,97743.66
2023-05-15T10:23:53.395Z,97744.63
2023-05-15T10:26:27.621Z,97739.34
2023-05-15T10:28:59.732Z,97740.75
2023-05-15T10:31:31.373Z,97732.09
2023-05-15T10:34:03.355Z,97728.41
2023-05-15T10:36:38.177Z,97717.03
2023-05-15T10:39:10.790Z,97718.28
2023-05-15T10:41:43.054Z,97720.19
2023-05-15T10:44:14.200Z,97710.66
2023-05-15T10:46:44.996Z,97713.44
2023-05-15T10:49:15.476Z,97705.06
2023-05-15T10:51:48.436Z,97715.38
2023-05-15T10:54:18.999Z,97702.06
2023-05-15T10:56:51.998Z,97699.56
2023-05-15T10:59:24.910Z,97706.47
2023-05-15T11:01:56.157Z,97693.69
2023-05-15T11:04:27.661Z,97703.88
2023-05-15T11:07:16.675Z,97684.66
2023-05-15T11:09:47.397Z,97694.13
2023-05-15T11:12:17.777Z,97697.25
2023-05-15T11:15:26.486Z,97703.59
2023-05-15T11:18:07.676Z,97700.84
2023-05-15T11:20:43.102Z,97704.00
2023-05-15T11:23:16.261Z,97688.06
2023-05-15T11:25:46.676Z,97687.38
2023-05-15T11:28:25.653Z,97688.47
2023-05-15T11:31:03.014Z,97684.34
2023-05-15T11:33:34.188Z,97682.16
2023-05-15T11:36:08.030Z,97681.72
2023-05-15T11:38:43.742Z,97674.44
2023-05-15T11:41:27.724Z,97665.91
2023-05-15T11:43:58.640Z,97669.56
2023-05-15T11:46:29.211Z,97669.16
2023-05-15T11:49:00.302Z,97667.50
2023-05-15T11:51:30.894Z,97663.63
2023-05-15T11:54:08.003Z,97668.28
2023-05-15T11:56:38.711Z,97666.63
2023-05-15T11:59:09.042Z,97666.78
2023-05-15T12:01:47.847Z,97663.84
2023-05-15T12:04:19.657Z,97661.03
2023-05-15T12:06:51.720Z,97667.03
2023-05-15T12:09:27.602Z,97658.63
2023-05-15T12:11:58.998Z,97676.34
2023-05-15T12:14:32.276Z,97662.28
2023-05-15T12:17:04.891Z,97667.25
2023-05-15T12:19:37.121Z,97657.25
2023-05-15T12:22:08.820Z,97666.94
2023-05-15T12:24:45.552Z,97656.28
2023-05-15T12:27:17.826Z,97654.56
2023-05-15T12:29:48.354Z,97648.66
2023-05-15T12:32:18.814Z,97656.28
2023-05-15T12:34:49.467Z,97658.13
2023-05-15T12:37:23.882Z,97671.22
2023-05-15T12:40:05.087Z,97660.47
2023-05-15T12:42:42.313Z,97659.38
2023-05-15T12:45:17.653Z,97673.03
2023-05-15T12:47:50.432Z,97678.00
2023-05-15T12:50:22.728Z,97682.41
2023-05-15T12:52:57.154Z,97668.78
2023-05-15T12:55:32.340Z,97680.00
2023-05-15T12:58:06.606Z,97677.88
2023-05-15T13:00:39.254Z,97669.13
2023-05-15T13:03:13.264Z,97664.97
2023-05-15T13:05:47.132Z,97655.53
2023-05-15T13:08:19.850Z,97660.06
2023-05-15T13:11:01.148Z,97656.72
2023-05-15T13:13:46.629Z,97661.28
2023-05-15T13:16:30.060Z,97653.78
2023-05-15T13:19:01.662Z,97646.78
2023-05-15T13:21:33.165Z,97647.44
2023-05-15T13:24:03.646Z,97645.13
2023-05-15T13:26:36.551Z,97645.91
2023-05-15T13:29:07.080Z,97638.72
2023-05-15T13:31:40.102Z,97628.94
2023-05-15T13:34:10.563Z,97639.63
2023-05-15T13:36:41.141Z,97630.91
2023-05-15T13:39:11.566Z,97633.66
2023-05-15T13:41:44.741Z,97631.91
2023-05-15T13:44:15.288Z,97633.81
2023-05-15T13:46:46.195Z,97641.47
2023-05-15T13:49:16.773Z,97637.31
2023-05-15T13:51:47.098Z,97640.53
2023-05-15T13:54:17.407Z,97645.78
2023-05-15T13:56:50.483Z,97647.44
2023-05-15T13:59:21.253Z,97643.88
2023-05-15T14:01:51.865Z,97645.09
2023-05-15T14:04:22.246Z,97649.25
2023-05-15T14:06:52.731Z,97649.22
2023-05-15T14:09:23.141Z,97643.22
2023-05-15T14:11:56.099Z,97634.03
2023-05-15T14:14:26.624Z,97635.34
2023-05-15T14:16:57.084Z,97638.47
2023-05-15T14:19:27.683Z,97635.50
2023-05-15T14:21:58.292Z,97644.50
2023-05-15T14:24:28.639Z,97649.63
2023-05-15T14:27:01.866Z,97647.63
2023-05-15T14:29:32.271Z,97657.28
2023-05-15T14:32:02.810Z,97647.41
2023-05-15T14:34:33.749Z,97653.28
2023-05-15T14:37:04.448Z,97659.97
2023-05-15T14:39:35.577Z,97657.81
2023-05-15T14:42:09.814Z,97658.94
2023-05-15T14:44:40.233Z,97655.97
2023-05-15T14:47:12.804Z,97662.28
2023-05-15T14:49:43.657Z,97656.31
2023-05-15T14:52:14.964Z,97667.44
2023-05-15T14:54:51.216Z,97662.16
2023-05-15T14:57:30.259Z,97660.94
2023-05-15T15:00:00.777Z,97662.28
2023-05-15T15:02:31.272Z,97676.19
2023-05-15T15:05:01.836Z,97683.19
2023-05-15T15:07:33.343Z,97686.13
2023-05-15T15:10:03.787Z,97692.09
2023-05-15T15:12:36.833Z,97691.81
2023-05-15T15:15:08.059Z,97712.03
2023-05-15T15:17:38.557Z,97711.59
2023-05-15T15:20:11.762Z,97713.59
2023-05-15T15:22:42.624Z,97718.66
2023-05-15T15:25:13.253Z,97726.22
2023-05-15T15:27:46.406Z,97716.97
2023-05-15T15:30:17.925Z,97710.09
2023-05-15T15:32:48.794Z,97726.09
2023-05-15T15:35:19.293Z,97717.94
2023-05-15T15:37:49.699Z,97718.06
2023-05-15T15:40:21.113Z,97718.41
2023-05-15T15:42:54.529Z,97728.91
2023-05-15T15:45:25.664Z,97725.94
2023-05-15T15:47:56.108Z,97726.78
2023-05-15T15:50:26.681Z,97738.44
2023-05-15T15:52:57.164Z,97740.28
2023-05-15T15:55:27.781Z,97744.31
2023-05-15T15:58:00.762Z,97746.59
2023-05-15T16:00:31.345Z,97741.97
2023-05-15T16:03:02.129Z,97733.91
2023-05-15T16:05:32.696Z,97729.66
2023-05-15T16:08:03.531Z,97736.41
2023-05-15T16:10:34.189Z,97723.34
2023-05-15T16:13:07.504Z,97719.81
2023-05-15T16:15:38.092Z,97725.69
2023-05-15T16:18:10.483Z,97725.56
2023-05-15T16:20:40.908Z,97727.88
2023-05-15T16:23:14.331Z,97729.78
2023-05-15T16:25:44.942Z,97722.09
2023-05-15T16:28:17.998Z,97739.28
2023-05-15T16:30:51.430Z,97733.81
2023-05-15T16:33:22.551Z,97729.81
2023-05-15T16:35:53.040Z,97737.94
2023-05-15T16:38:23.873Z,97744.53
2023-05-15T16:40:54.686Z,97739.00
2023-05-15T16:43:27.672Z,97740.88
2023-05-15T16:45:59.086Z,97735.97
2023-05-15T16:48:29.608Z,97739.09
2023-05-15T16:51:00.183Z,97737.88
2023-05-15T16:53:30.830Z,97742.38
2023-05-15T16:56:01.199Z,97742.78
2023-05-15T16:58:34.193Z,97748.00
2023-05-15T17:01:05.462Z,97743.22
2023-05-15T17:03:36.410Z,97746.66
2023-05-15T17:06:07.630Z,97745.59
2023-05-15T17:08:38.077Z,97752.91
2023-05-15T17:11:08.772Z,97747.81
2023-05-15T17:13:41.801Z,97749.34
2023-05-15T17:16:12.228Z,97751.25
2023-05-15T17:18:42.796Z,97751.69
2023-05-15T17:21:13.363Z,97748.41
2023-05-15T17:23:43.789Z,97745.91
2023-05-15T17:26:14.128Z,97754.53
2023-05-15T17:28:47.222Z,97753.72
2023-05-15T17:31:17.554Z,97752.69
2023-05-15T17:33:48.076Z,97757.38
2023-05-15T17:36:18.457Z,97760.66
2023-05-15T17:38:48.876Z,97760.47
2023-05-15T17:41:19.260Z,97762.72
2023-05-15T17:43:53.087Z,97768.22
2023-05-15T17:46:23.746Z,97765.94
2023-05-15T17:48:54.249Z,97768.69
2023-05-15T17:51:24.723Z,97768.84
2023-05-15T17:53:55.508Z,97776.69
2023-05-15T17:56:25.946Z,97775.84
2023-05-15T17:58:59.181Z,97776.97
2023-05-15T18:01:29.656Z,97790.00
2023-05-15T18:04:00.224Z,97775.16
2023-05-15T18:06:31.005Z,97776.09
2023-05-15T18:09:02.152Z,97787.50
2023-05-15T18:11:32.595Z,97791.72
2023-05-15T18:14:05.867Z,97798.97
2023-05-15T18:16:36.349Z,97796.38
2023-05-15T18:19:07.328Z,97802.53
2023-05-15T18:21:38.179Z,97799.38
2023-05-15T18:24:09.543Z,97808.53
2023-05-15T18:26:39.998Z,97802.75
2023-05-15T18:29:13.042Z,97817.97
2023-05-15T18:31:43.496Z,97814.09
2023-05-15T18:34:13.989Z,97820.59
2023-05-15T18:36:44.379Z,97824.53
2023-05-15T18:39:15.896Z,97832.31
2023-05-15T18:41:46.875Z,97826.34
2023-05-15T18:44:19.901Z,97832.25
2023-05-15T18:46:50.400Z,97829.31
2023-05-15T18:49:21.515Z,97822.59
2023-05-15T18:51:51.927Z,97831.44
2023-05-15T18:54:22.429Z,97825.53
2023-05-15T18:56:53.129Z,97829.09
2023-05-15T18:59:27.167Z,97828.50
2023-05-15T19:01:58.120Z,97839.66
2023-05-15T19:04:28.934Z,97843.16
2023-05-15T19:06:59.456Z,97841.25
2023-05-15T19:09:30.081Z,97854.78
2023-05-15T19:12:02.551Z,97852.16
2023-05-15T19:14:35.935Z,97850.50
2023-05-15T19:17:06.620Z,97848.28
2023-05-15T19:19:37.124Z,97847.44
2023-05-15T19:22:08.158Z,97844.84
2023-05-15T19:24:38.540Z,97850.50
2023-05-15T19:27:09.771Z,97844.84
2023-05-15T19:29:43.041Z,97847.00
2023-05-15T19:32:13.517Z,97867.31
2023-05-15T19:34:44.198Z,97868.16
2023-05-15T19:37:14.944Z,97875.13
2023-05-15T19:39:45.324Z,97874.66
2023-05-15T19:42:15.740Z,97874.09
2023-05-15T19:44:48.787Z,97878.69
2023-05-15T19:47:19.132Z,97886.63
2023-05-15T19:49:49.617Z,97887.69
2023-05-15T19:52:22.083Z,97881.09
2023-05-15T19:54:52.453Z,97889.13
2023-05-15T19:57:22.939Z,97895.28
2023-05-15T19:59:55.889Z,97903.22
2023-05-15T20:02:26.416Z,97902.63
2023-05-15T20:04:56.871Z,97904.50
2023-05-15T20:07:27.382Z,97901.00
2023-05-15T20:10:01.068Z,97905.59
2023-05-15T20:12:31.465Z,97896.47
2023-05-15T20:15:04.762Z,97907.13
2023-05-15T20:17:35.180Z,97910.22
2023-05-15T20:20:08.379Z,97909.72
2023-05-15T20:22:38.781Z,97904.78
2023-05-15T20:25:10.351Z,97911.84
2023-05-15T20:27:40.842Z,97913.88
2023-05-15T20:30:15.189Z,97905.59
2023-05-15T20:32:45.577Z,97905.00
2023-05-15T20:35:17.136Z,97911.97
2023-05-15T20:37:47.715Z,97912.34
2023-05-15T20:40:22.906Z,97910.78
2023-05-15T20:42:53.454Z,97906.63
2023-05-15T20:45:27.640Z,97902.63
2023-05-15T20:47:58.535Z,97907.13
2023-05-15T20:50:29.357Z,97909.00
2023-05-15T20:52:59.844Z,97908.38
2023-05-15T20:55:30.137Z,97909.56
2023-05-15T20:58:00.672Z,97906.38
2023-05-15T21:00:33.992Z,97902.25
2023-05-15T21:03:04.375Z,97903.31
2023-05-15T21:05:34.869Z,97901.66
2023-05-15T21:08:05.446Z,97899.16
2023-05-15T21:10:35.902Z,97891.47
2023-05-15T21:13:06.535Z,97892.44
2023-05-15T21:15:40.036Z,97894.44
2023-05-15T21:18:10.463Z,97897.94
2023-05-15T21:20:42.601Z,97897.09
2023-05-15T21:23:13.028Z,97901.69
2023-05-15T21:25:45.434Z,97898.53
2023-05-15T21:28:15.860Z,97894.47
2023-05-15T21:30:48.961Z,97886.19
2023-05-15T21:33:19.360Z,97892.47
2023-05-15T21:35:50.177Z,97896.31
2023-05-15T21:38:20.719Z,97884.50
2023-05-15T21:40:51.301Z,97882.97
2023-05-15T21:43:21.734Z,97890.88
2023-05-15T21:45:57.203Z,97888.63
2023-05-15T21:48:27.877Z,97881.75
2023-05-15T21:50:59.171Z,97882.81
2023-05-15T21:53:29.910Z,97888.22
2023-05-15T21:56:02.542Z,97882.56
2023-05-15T21:58:33.149Z,97891.16
2023-05-15T22:01:06.194Z,97889.53
2023-05-15T22:03:36.978Z,97898.63
2023-05-15T22:06:07.800Z,97897.19
2023-05-15T22:08:38.192Z,97907.34
2023-05-15T22:11:08.743Z,97901.78
2023-05-15T22:13:39.167Z,97907.09
2023-05-15T22:16:12.442Z,97902.31
2023-05-15T22:18:45.461Z,97906.81
2023-05-15T22:21:15.806Z,97902.78
2023-05-15T22:23:46.417Z,97898.56
2023-05-15T22:26:17.690Z,97904.91
2023-05-15T22:28:51.052Z,97910.94
2023-05-15T22:31:24.474Z,97907.13
2023-05-15T22:33:54.955Z,97908.25
2023-05-15T22:36:25.419Z,97911.06
2023-05-15T22:38:55.729Z,97908.81
2023-05-15T22:41:26.278Z,97910.56
2023-05-15T22:43:56.709Z,97909.00
2023-05-15T22:46:29.796Z,97913.59
2023-05-15T22:49:01.692Z,97912.88
2023-05-15T22:51:32.388Z,97920.03
2023-05-15T22:54:02.707Z,97911.22
2023-05-15T22:56:33.180Z,97911.31
2023-05-15T22:59:04.412Z,97909.88
2023-05-15T23:01:37.345Z,97909.19
2023-05-15T23:04:08.742Z,97911.16
2023-05-15T23:06:40.358Z,97913.00
2023-05-15T23:09:11.861Z,97908.72
2023-05-15T23:11:42.325Z,97904.69
2023-05-15T23:14:12.697Z,97906.56
2023-05-15T23:16:45.607Z,97901.28
2023-05-15T23:19:16.290Z,97903.25
2023-05-15T23:21:46.782Z,97909.25
2023-05-15T23:24:17.191Z,97904.50
2023-05-15T23:26:48.308Z,97900.66
2023-05-15T23:29:18.651Z,97905.03
2023-05-15T23:31:51.848Z,97906.47
2023-05-15T23:34:22.259Z,97907.00
2023-05-15T23:36:52.672Z,97912.19
2023-05-15T23:39:23.124Z,97902.22
2023-05-15T23:41:53.459Z,97904.59
2023-05-15T23:44:24.127Z,97905.75
2023-05-15T23:46:57.494Z,97904.31
2023-05-15T23:49:28.017Z,97902.66
2023-05-15T23:51:58.367Z,97903.56
2023-05-15T23:54:28.845Z,97912.41
2023-05-15T23:56:59.206Z,97902.25
2023-05-15T23:59:29.564Z,97906.41
